Time;durP1;ratioP1;P1;durP2;ratioP2;P2;SDS_P1;SDS_P2;PMS_P1;PMS_P2;Temp;Humidity;BMP_temperature;BMP_pressure;BME280_temperature;BME280_humidity;BME280_pressure;Samples;Min_cycle;Max_cycle;Signal;HPM_P1;HPM_P2
2024/02/03 00:00:03;;;;;;;22.15;12.18;;;;;;;;;;4987440;28;20113;-64
2024/02/03 00:02:29;;;;;;;21.10;12.35;;;;;;;;;;4990142;28;20030;-64
2024/02/03 00:04:55;;;;;;;25.13;13.15;;;;;;;;;;4990801;28;20077;-64
2024/02/03 00:07:21;;;;;;;23.45;13.20;;;;;;;;;;4990731;28;20105;-64
2024/02/03 00:09:47;;;;;;;22.75;12.48;;;;;;;;;;4986021;28;20033;-64
2024/02/03 00:12:15;;;;;;;24.17;13.88;;;;;;;;;;4990837;28;20026;-64
2024/02/03 00:14:41;;;;;;;30.20;13.25;;;;;;;;;;4986938;28;20027;-64
2024/02/03 00:17:07;;;;;;;26.30;14.20;;;;;;;;;;4988938;28;20101;-65
2024/02/03 00:19:33;;;;;;;30.25;14.80;;;;;;;;;;4990632;28;20105;-63
2024/02/03 00:21:59;;;;;;;32.20;14.73;;;;;;;;;;4990918;28;20053;-65
2024/02/03 00:24:26;;;;;;;25.00;14.35;;;;;;;;;;4989568;28;20034;-64
2024/02/03 00:26:52;;;;;;;26.60;14.48;;;;;;;;;;4989462;28;20092;-64
2024/02/03 00:29:18;;;;;;;29.38;15.20;;;;;;;;;;4988251;28;20081;-65
2024/02/03 00:31:44;;;;;;;29.60;15.60;;;;;;;;;;4987880;28;20144;-65
2024/02/03 00:34:10;;;;;;;28.33;15.73;;;;;;;;;;4982955;28;20038;-65
2024/02/03 00:36:36;;;;;;;27.38;14.25;;;;;;;;;;4989155;28;20026;-65
2024/02/03 00:39:03;;;;;;;25.42;14.55;;;;;;;;;;4988077;28;20022;-64
2024/02/03 00:41:29;;;;;;;27.70;15.13;;;;;;;;;;4986721;28;20624;-64
2024/02/03 00:43:54;;;;;;;31.13;14.48;;;;;;;;;;4980252;28;20137;-64
2024/02/03 00:46:20;;;;;;;27.38;14.10;;;;;;;;;;4989481;28;20152;-64
2024/02/03 00:48:46;;;;;;;31.13;14.93;;;;;;;;;;4988036;28;20046;-65
2024/02/03 00:51:12;;;;;;;28.60;14.98;;;;;;;;;;4988773;28;20042;-64
2024/02/03 00:53:39;;;;;;;33.10;15.73;;;;;;;;;;4989798;28;20030;-65
2024/02/03 00:56:05;;;;;;;27.27;13.45;;;;;;;;;;4991010;28;20021;-64
2024/02/03 00:58:31;;;;;;;27.88;14.07;;;;;;;;;;4988142;28;20027;-65
2024/02/03 01:00:57;;;;;;;32.17;15.02;;;;;;;;;;4988227;28;20033;-65
2024/02/03 01:03:27;;;;;;;28.25;14.13;;;;;;;;;;4989835;28;20045;-64
2024/02/03 01:05:53;;;;;;;26.65;13.38;;;;;;;;;;4990441;28;20109;-65
2024/02/03 01:08:19;;;;;;;27.40;14.52;;;;;;;;;;4990462;28;20134;-65
2024/02/03 01:10:46;;;;;;;26.27;13.90;;;;;;;;;;4988489;28;20038;-65
2024/02/03 01:13:12;;;;;;;26.58;14.00;;;;;;;;;;4988541;28;20049;-65
2024/02/03 01:15:38;;;;;;;23.70;13.43;;;;;;;;;;4987233;28;20399;-65
2024/02/03 01:18:04;;;;;;;21.25;12.32;;;;;;;;;;4990132;28;20019;-65
2024/02/03 01:20:30;;;;;;;23.13;12.15;;;;;;;;;;4987921;28;20400;-65
2024/02/03 01:22:56;;;;;;;23.00;12.13;;;;;;;;;;4982751;28;20049;-66
2024/02/03 01:25:22;;;;;;;25.13;12.70;;;;;;;;;;4989275;28;20034;-65
2024/02/03 01:27:48;;;;;;;20.98;11.80;;;;;;;;;;4989685;28;20030;-65
2024/02/03 01:30:14;;;;;;;21.50;11.38;;;;;;;;;;4986838;28;20117;-65
2024/02/03 01:32:40;;;;;;;19.63;11.23;;;;;;;;;;4989044;28;20073;-64
2024/02/03 01:35:06;;;;;;;22.45;12.75;;;;;;;;;;4990238;28;20030;-64
2024/02/03 01:37:32;;;;;;;20.80;11.55;;;;;;;;;;4988116;28;20022;-65
2024/02/03 01:39:58;;;;;;;19.38;10.77;;;;;;;;;;4989261;28;20084;-65
2024/02/03 01:42:24;;;;;;;17.13;9.68;;;;;;;;;;4989380;28;20025;-65
2024/02/03 01:44:50;;;;;;;17.27;9.73;;;;;;;;;;4986723;28;20049;-65
2024/02/03 01:47:17;;;;;;;21.23;10.95;;;;;;;;;;4989504;28;20038;-65
2024/02/03 01:49:43;;;;;;;22.15;11.05;;;;;;;;;;4988869;28;20034;-65
2024/02/03 01:52:10;;;;;;;22.88;11.70;;;;;;;;;;4988038;28;20094;-64
2024/02/03 01:54:36;;;;;;;18.88;9.60;;;;;;;;;;4989727;28;20104;-65
2024/02/03 01:57:04;;;;;;;19.40;9.45;;;;;;;;;;4990092;28;20030;-64
2024/02/03 01:59:30;;;;;;;18.63;9.85;;;;;;;;;;4987493;28;20116;-64
2024/02/03 02:01:57;;;;;;;16.90;9.20;;;;;;;;;;4991625;28;20049;-64
2024/02/03 02:04:27;;;;;;;20.45;10.57;;;;;;;;;;4994206;28;20066;-65
2024/02/03 02:06:53;;;;;;;18.35;9.05;;;;;;;;;;4993722;28;20046;-66
2024/02/03 02:09:22;;;;;;;19.30;10.23;;;;;;;;;;4991667;28;20035;-65
2024/02/03 02:11:48;;;;;;;17.48;9.60;;;;;;;;;;4992578;28;20472;-65
2024/02/03 02:14:14;;;;;;;17.27;9.55;;;;;;;;;;4991804;28;20065;-66
2024/02/03 02:16:40;;;;;;;20.55;10.68;;;;;;;;;;4990039;28;20034;-66
2024/02/03 02:19:06;;;;;;;17.60;9.48;;;;;;;;;;4990881;28;20048;-65
2024/02/03 02:21:32;;;;;;;18.23;10.63;;;;;;;;;;4992428;28;20540;-65
2024/02/03 02:23:58;;;;;;;19.27;10.02;;;;;;;;;;4989112;28;20037;-65
2024/02/03 02:26:24;;;;;;;18.13;10.18;;;;;;;;;;4992327;28;20030;-66
2024/02/03 02:28:51;;;;;;;18.33;9.60;;;;;;;;;;4987910;28;20058;-65
2024/02/03 02:31:17;;;;;;;20.13;10.65;;;;;;;;;;4988638;28;20038;-65
2024/02/03 02:33:43;;;;;;;15.27;8.80;;;;;;;;;;4992767;28;20068;-65
2024/02/03 02:36:10;;;;;;;21.10;9.77;;;;;;;;;;4991594;28;20435;-65
2024/02/03 02:38:36;;;;;;;16.38;9.73;;;;;;;;;;4993054;28;20019;-65
2024/02/03 02:41:02;;;;;;;15.63;8.77;;;;;;;;;;4990004;28;20103;-65
2024/02/03 02:43:28;;;;;;;18.08;9.60;;;;;;;;;;4987084;28;20042;-65
2024/02/03 02:45:54;;;;;;;17.42;9.07;;;;;;;;;;4990677;28;20044;-66
2024/02/03 02:48:20;;;;;;;16.38;8.65;;;;;;;;;;4991699;28;20045;-66
2024/02/03 02:50:46;;;;;;;16.52;8.30;;;;;;;;;;4991706;28;20030;-65
2024/02/03 02:53:12;;;;;;;19.90;10.20;;;;;;;;;;4992869;28;20038;-65
2024/02/03 02:55:39;;;;;;;16.95;10.27;;;;;;;;;;4986716;28;20114;-65
2024/02/03 02:58:05;;;;;;;20.63;10.32;;;;;;;;;;4987593;28;20062;-65
2024/02/03 03:00:32;;;;;;;16.67;8.95;;;;;;;;;;4990468;28;20105;-66
2024/02/03 03:02:58;;;;;;;17.88;9.40;;;;;;;;;;4991348;28;20157;-66
2024/02/03 03:05:23;;;;;;;16.85;9.35;;;;;;;;;;4987875;28;20100;-65
2024/02/03 03:07:50;;;;;;;16.92;9.27;;;;;;;;;;4991141;28;20484;-66
2024/02/03 03:10:16;;;;;;;15.95;8.77;;;;;;;;;;4989734;28;20099;-65
2024/02/03 03:12:42;;;;;;;18.02;9.75;;;;;;;;;;4986376;28;20619;-66
2024/02/03 03:15:08;;;;;;;22.80;10.40;;;;;;;;;;4988334;28;20130;-65
2024/02/03 03:17:34;;;;;;;20.85;10.15;;;;;;;;;;4987000;28;20034;-65
2024/02/03 03:20:00;;;;;;;18.30;9.50;;;;;;;;;;4991690;28;20464;-66
2024/02/03 03:22:26;;;;;;;19.33;9.15;;;;;;;;;;4990596;28;20026;-65
2024/02/03 03:24:52;;;;;;;19.33;10.07;;;;;;;;;;4989990;28;20112;-66
2024/02/03 03:27:19;;;;;;;18.38;10.73;;;;;;;;;;4991013;28;20519;-66
2024/02/03 03:29:49;;;;;;;16.63;9.55;;;;;;;;;;4990233;28;20030;-66
2024/02/03 03:32:14;;;;;;;20.73;9.45;;;;;;;;;;4991555;28;20031;-66
2024/02/03 03:34:41;;;;;;;19.02;9.70;;;;;;;;;;4991462;28;20073;-65
2024/02/03 03:37:07;;;;;;;17.77;9.23;;;;;;;;;;4990128;28;20026;-66
2024/02/03 03:39:33;;;;;;;17.13;8.02;;;;;;;;;;4988904;28;20113;-65
2024/02/03 03:41:59;;;;;;;17.55;9.15;;;;;;;;;;4989446;28;20646;-66
2024/02/03 03:44:25;;;;;;;17.70;9.05;;;;;;;;;;4990185;28;20041;-64
2024/02/03 03:46:51;;;;;;;17.25;8.88;;;;;;;;;;4990390;28;20488;-66
2024/02/03 03:49:18;;;;;;;17.27;8.60;;;;;;;;;;4991542;28;20030;-65
2024/02/03 03:51:44;;;;;;;16.95;8.45;;;;;;;;;;4988927;28;20030;-65
2024/02/03 03:54:10;;;;;;;20.30;8.90;;;;;;;;;;4989960;28;20091;-66
2024/02/03 03:56:36;;;;;;;15.90;8.25;;;;;;;;;;4989586;28;20030;-65
2024/02/03 03:59:02;;;;;;;20.55;9.98;;;;;;;;;;4988399;28;20026;-66
2024/02/03 04:01:28;;;;;;;25.55;8.65;;;;;;;;;;4989954;28;20030;-66
2024/02/03 04:03:53;;;;;;;16.63;8.73;;;;;;;;;;4991657;28;20057;-65
2024/02/03 04:06:19;;;;;;;16.83;8.52;;;;;;;;;;4991523;28;20038;-66
2024/02/03 04:08:45;;;;;;;21.13;9.30;;;;;;;;;;4991326;28;20045;-66
2024/02/03 04:11:11;;;;;;;17.00;8.25;;;;;;;;;;4989994;28;20030;-66
2024/02/03 04:13:39;;;;;;;16.50;7.95;;;;;;;;;;4992888;28;20065;-65
2024/02/03 04:16:05;;;;;;;15.10;8.40;;;;;;;;;;4987687;28;20037;-66
2024/02/03 04:18:31;;;;;;;15.32;7.88;;;;;;;;;;4990552;28;20105;-65
2024/02/03 04:20:57;;;;;;;14.57;7.30;;;;;;;;;;4991188;28;20109;-66
2024/02/03 04:23:23;;;;;;;15.43;7.63;;;;;;;;;;4990442;28;20077;-66
2024/02/03 04:25:49;;;;;;;12.68;7.07;;;;;;;;;;4988817;28;20037;-66
2024/02/03 04:28:15;;;;;;;17.85;7.97;;;;;;;;;;4988643;28;20096;-66
2024/02/03 04:30:42;;;;;;;17.77;8.18;;;;;;;;;;4986442;28;20067;-66
2024/02/03 04:33:08;;;;;;;11.80;6.70;;;;;;;;;;4986235;28;20404;-66
2024/02/03 04:35:34;;;;;;;12.52;6.70;;;;;;;;;;4990336;28;20022;-64
2024/02/03 04:38:02;;;;;;;10.77;6.15;;;;;;;;;;4990727;28;20030;-65
2024/02/03 04:40:28;;;;;;;9.18;5.78;;;;;;;;;;4989750;28;20441;-66
2024/02/03 04:42:54;;;;;;;11.52;6.35;;;;;;;;;;4989708;28;20397;-66
2024/02/03 04:45:20;;;;;;;11.15;5.78;;;;;;;;;;4988264;28;20030;-66
2024/02/03 04:47:46;;;;;;;11.05;5.55;;;;;;;;;;4988522;28;20522;-64
2024/02/03 04:50:12;;;;;;;10.95;5.88;;;;;;;;;;4990293;28;20046;-64
2024/02/03 04:52:39;;;;;;;11.70;5.35;;;;;;;;;;4988748;28;20041;-66
2024/02/03 04:55:05;;;;;;;10.02;5.40;;;;;;;;;;4987794;28;20030;-66
2024/02/03 04:57:31;;;;;;;9.63;5.85;;;;;;;;;;4982782;28;20022;-65
2024/02/03 04:59:57;;;;;;;9.90;5.60;;;;;;;;;;4987005;28;20502;-66
2024/02/03 05:02:23;;;;;;;10.13;5.90;;;;;;;;;;4987345;28;20558;-66
2024/02/03 05:04:49;;;;;;;12.43;6.47;;;;;;;;;;4989053;28;20050;-66
2024/02/03 05:07:15;;;;;;;10.18;5.88;;;;;;;;;;4988976;28;20038;-66
2024/02/03 05:09:41;;;;;;;11.98;6.35;;;;;;;;;;4989809;28;20030;-65
2024/02/03 05:12:07;;;;;;;10.80;6.03;;;;;;;;;;4988959;28;20030;-65
2024/02/03 05:14:33;;;;;;;10.68;5.75;;;;;;;;;;4990092;28;20057;-66
2024/02/03 05:16:59;;;;;;;9.25;5.05;;;;;;;;;;4987652;28;20061;-66
2024/02/03 05:19:27;;;;;;;9.35;5.38;;;;;;;;;;4989582;28;20029;-64
2024/02/03 05:21:53;;;;;;;10.18;5.40;;;;;;;;;;4989520;28;20026;-64
2024/02/03 05:24:19;;;;;;;9.07;5.53;;;;;;;;;;4989181;28;20164;-65
2024/02/03 05:26:45;;;;;;;11.25;5.45;;;;;;;;;;4986716;28;20116;-65
2024/02/03 05:29:11;;;;;;;9.48;5.82;;;;;;;;;;4990599;28;20115;-65
2024/02/03 05:31:37;;;;;;;9.18;5.20;;;;;;;;;;4982850;28;20107;-64
2024/02/03 05:34:03;;;;;;;8.63;5.20;;;;;;;;;;4990797;28;20088;-65
2024/02/03 05:36:29;;;;;;;12.75;5.40;;;;;;;;;;4987594;28;20030;-65
2024/02/03 05:38:55;;;;;;;9.85;4.97;;;;;;;;;;4988975;28;20026;-65
2024/02/03 05:41:21;;;;;;;7.82;5.05;;;;;;;;;;4989218;28;20030;-66
2024/02/03 05:43:47;;;;;;;8.02;4.57;;;;;;;;;;4988825;28;20038;-65
2024/02/03 05:46:13;;;;;;;11.27;5.30;;;;;;;;;;4986969;28;20031;-65
2024/02/03 05:48:39;;;;;;;8.55;4.88;;;;;;;;;;4988179;28;20062;-65
2024/02/03 05:51:05;;;;;;;9.50;5.03;;;;;;;;;;4987046;28;20049;-65
2024/02/03 05:53:35;;;;;;;9.63;4.60;;;;;;;;;;4989159;28;20022;-65
2024/02/03 05:56:01;;;;;;;7.63;4.82;;;;;;;;;;4986393;28;20018;-65
2024/02/03 05:58:27;;;;;;;13.02;5.00;;;;;;;;;;4997509;28;20037;-65
2024/02/03 06:00:53;;;;;;;8.00;4.68;;;;;;;;;;4989869;28;20130;-65
2024/02/03 06:03:19;;;;;;;7.32;4.30;;;;;;;;;;4992739;28;20026;-68
2024/02/03 06:05:45;;;;;;;8.88;5.32;;;;;;;;;;4989130;28;20480;-65
2024/02/03 06:08:11;;;;;;;8.27;5.00;;;;;;;;;;4989329;28;20489;-65
2024/02/03 06:10:37;;;;;;;8.27;4.70;;;;;;;;;;4989844;28;20038;-66
2024/02/03 06:13:03;;;;;;;9.90;5.35;;;;;;;;;;4990823;28;20034;-66
2024/02/03 06:15:29;;;;;;;8.18;4.63;;;;;;;;;;4988350;28;20393;-65
2024/02/03 06:17:55;;;;;;;9.35;5.60;;;;;;;;;;4991838;28;20034;-66
2024/02/03 06:20:21;;;;;;;10.00;5.32;;;;;;;;;;4990954;28;20333;-65
2024/02/03 06:22:47;;;;;;;8.13;5.10;;;;;;;;;;4988097;28;20480;-65
2024/02/03 06:25:13;;;;;;;7.47;4.90;;;;;;;;;;4987715;28;20492;-65
2024/02/03 06:27:39;;;;;;;7.72;5.10;;;;;;;;;;4990102;28;20089;-65
2024/02/03 06:30:05;;;;;;;9.35;4.15;;;;;;;;;;4991461;28;20503;-65
2024/02/03 06:32:31;;;;;;;8.40;5.32;;;;;;;;;;4988279;28;20097;-65
2024/02/03 06:34:57;;;;;;;6.72;4.15;;;;;;;;;;4985115;28;20134;-65
2024/02/03 06:37:23;;;;;;;7.75;4.70;;;;;;;;;;4990587;28;20018;-65
2024/02/03 06:39:49;;;;;;;9.93;4.82;;;;;;;;;;4988948;28;20539;-66
2024/02/03 06:42:15;;;;;;;8.38;4.15;;;;;;;;;;4989049;28;20484;-65
2024/02/03 06:44:41;;;;;;;7.85;5.35;;;;;;;;;;4986824;28;20566;-65
2024/02/03 06:47:07;;;;;;;8.50;4.78;;;;;;;;;;4989429;28;20179;-65
2024/02/03 06:49:33;;;;;;;9.27;5.68;;;;;;;;;;4993228;28;20065;-65
2024/02/03 06:51:59;;;;;;;9.27;6.05;;;;;;;;;;4988801;28;20045;-64
2024/02/03 06:54:25;;;;;;;9.75;5.30;;;;;;;;;;4988579;28;20041;-65
2024/02/03 06:56:51;;;;;;;7.43;4.63;;;;;;;;;;4988322;28;20150;-65
2024/02/03 06:59:17;;;;;;;7.25;4.55;;;;;;;;;;4993013;28;20101;-65
2024/02/03 07:01:43;;;;;;;8.80;5.28;;;;;;;;;;4991116;28;20026;-65
2024/02/03 07:04:09;;;;;;;7.63;4.65;;;;;;;;;;4991282;28;20046;-65
2024/02/03 07:06:35;;;;;;;8.68;5.80;;;;;;;;;;4991895;28;20484;-64
2024/02/03 07:09:01;;;;;;;9.63;6.07;;;;;;;;;;4992144;28;20030;-65
2024/02/03 07:11:27;;;;;;;7.50;4.85;;;;;;;;;;4989198;28;20030;-65
2024/02/03 07:13:53;;;;;;;10.05;5.90;;;;;;;;;;4991639;28;20464;-65
2024/02/03 07:16:19;;;;;;;9.48;5.65;;;;;;;;;;4990919;28;20491;-65
2024/02/03 07:18:45;;;;;;;9.10;5.43;;;;;;;;;;4991248;28;20022;-66
2024/02/03 07:21:10;;;;;;;5.90;4.38;;;;;;;;;;4990646;28;20023;-65
2024/02/03 07:23:36;;;;;;;9.23;5.65;;;;;;;;;;4989946;28;20036;-65
2024/02/03 07:26:02;;;;;;;13.35;5.97;;;;;;;;;;4990303;28;20500;-65
2024/02/03 07:28:28;;;;;;;7.20;4.38;;;;;;;;;;4991788;28;20492;-65
2024/02/03 07:30:54;;;;;;;10.45;5.03;;;;;;;;;;4991481;28;20034;-65
2024/02/03 07:33:20;;;;;;;8.40;5.00;;;;;;;;;;4988627;28;20027;-65
2024/02/03 07:35:46;;;;;;;8.45;4.85;;;;;;;;;;4990221;28;20396;-65
2024/02/03 07:38:12;;;;;;;7.30;4.82;;;;;;;;;;4991667;28;20110;-66
2024/02/03 07:40:38;;;;;;;6.03;4.40;;;;;;;;;;4987362;28;20102;-65
2024/02/03 07:43:04;;;;;;;7.80;4.03;;;;;;;;;;4990684;28;20049;-66
2024/02/03 07:45:30;;;;;;;5.93;4.18;;;;;;;;;;4988322;28;20512;-65
2024/02/03 07:47:56;;;;;;;7.45;4.97;;;;;;;;;;4988201;28;20041;-65
2024/02/03 07:50:22;;;;;;;10.73;4.68;;;;;;;;;;4990931;28;20118;-64
2024/02/03 07:52:48;;;;;;;5.97;4.03;;;;;;;;;;4989155;28;20034;-65
2024/02/03 07:55:14;;;;;;;6.95;4.55;;;;;;;;;;4989164;28;20080;-65
2024/02/03 07:57:40;;;;;;;6.57;4.18;;;;;;;;;;4990987;28;20050;-65
2024/02/03 08:00:06;;;;;;;7.88;4.05;;;;;;;;;;4991632;28;20461;-66
2024/02/03 08:02:32;;;;;;;7.70;4.20;;;;;;;;;;4988947;28;20023;-66
2024/02/03 08:04:58;;;;;;;6.70;4.40;;;;;;;;;;4998582;28;20511;-64
2024/02/03 08:07:24;;;;;;;7.97;3.83;;;;;;;;;;4992266;28;20112;-64
2024/02/03 08:09:50;;;;;;;8.25;4.45;;;;;;;;;;4992904;28;20033;-63
2024/02/03 08:12:16;;;;;;;8.43;4.72;;;;;;;;;;4990745;28;20169;-64
2024/02/03 08:14:42;;;;;;;7.47;4.80;;;;;;;;;;4993030;28;20034;-65
2024/02/03 08:17:08;;;;;;;9.85;4.78;;;;;;;;;;4990781;28;20034;-65
2024/02/03 08:19:34;;;;;;;8.65;4.63;;;;;;;;;;4993171;28;20090;-64
2024/02/03 08:22:00;;;;;;;6.75;4.00;;;;;;;;;;4996339;28;20030;-65
2024/02/03 08:24:26;;;;;;;8.35;4.28;;;;;;;;;;4994829;28;20481;-65
2024/02/03 08:26:52;;;;;;;8.27;4.25;;;;;;;;;;4987853;28;20030;-64
2024/02/03 08:29:18;;;;;;;6.63;4.00;;;;;;;;;;4992666;28;20026;-64
2024/02/03 08:31:44;;;;;;;9.18;3.67;;;;;;;;;;4985132;28;20515;-65
2024/02/03 08:34:10;;;;;;;6.32;3.78;;;;;;;;;;4992001;28;20034;-65
2024/02/03 08:36:36;;;;;;;5.35;3.35;;;;;;;;;;4984386;28;20030;-64
2024/02/03 08:39:01;;;;;;;6.75;4.13;;;;;;;;;;4993570;28;20018;-65
2024/02/03 08:41:27;;;;;;;5.18;3.38;;;;;;;;;;4988270;28;20026;-65
2024/02/03 08:43:53;;;;;;;6.82;4.13;;;;;;;;;;4988248;28;20112;-61
2024/02/03 08:46:19;;;;;;;11.05;3.92;;;;;;;;;;4986167;28;20058;-61
2024/02/03 08:48:45;;;;;;;6.65;3.33;;;;;;;;;;4985483;28;20061;-61
2024/02/03 08:51:11;;;;;;;6.45;3.90;;;;;;;;;;4988044;28;20034;-61
2024/02/03 08:53:37;;;;;;;6.28;3.83;;;;;;;;;;4991068;28;20030;-61
2024/02/03 08:56:07;;;;;;;7.60;3.92;;;;;;;;;;4987284;28;20109;-61
2024/02/03 08:58:33;;;;;;;9.57;4.38;;;;;;;;;;4990710;28;20389;-61
2024/02/03 09:00:58;;;;;;;9.25;4.80;;;;;;;;;;4985336;28;20078;-61
2024/02/03 09:03:24;;;;;;;13.65;6.78;;;;;;;;;;4983652;28;20036;-59
2024/02/03 09:05:50;;;;;;;11.80;6.22;;;;;;;;;;4983626;28;20030;-61
2024/02/03 09:08:16;;;;;;;13.73;7.95;;;;;;;;;;4988982;28;20046;-62
2024/02/03 09:10:42;;;;;;;14.45;7.72;;;;;;;;;;4988265;28;20026;-61
2024/02/03 09:13:08;;;;;;;13.68;8.60;;;;;;;;;;4988983;28;20096;-61
2024/02/03 09:15:34;;;;;;;14.10;7.95;;;;;;;;;;4984652;28;20489;-60
2024/02/03 09:18:00;;;;;;;16.05;8.27;;;;;;;;;;4981402;28;20037;-61
2024/02/03 09:20:26;;;;;;;11.70;7.38;;;;;;;;;;4984838;28;20039;-60
2024/02/03 09:22:52;;;;;;;10.65;7.43;;;;;;;;;;4987008;28;20033;-61
2024/02/03 09:25:18;;;;;;;13.98;6.80;;;;;;;;;;4989604;28;20022;-60
2024/02/03 09:27:44;;;;;;;11.77;7.28;;;;;;;;;;4988111;28;20499;-61
2024/02/03 09:30:12;;;;;;;10.57;7.43;;;;;;;;;;4989004;28;20038;-60
2024/02/03 09:32:38;;;;;;;15.32;8.60;;;;;;;;;;4984285;28;20025;-61
2024/02/03 09:35:04;;;;;;;11.68;7.60;;;;;;;;;;4990228;28;20481;-60
2024/02/03 09:37:30;;;;;;;16.48;8.50;;;;;;;;;;4987144;28;20106;-59
2024/02/03 09:39:56;;;;;;;15.75;8.48;;;;;;;;;;4989189;28;20216;-58
2024/02/03 09:42:23;;;;;;;14.68;7.00;;;;;;;;;;4989312;28;20034;-61
2024/02/03 09:44:49;;;;;;;12.23;7.78;;;;;;;;;;4989561;28;20034;-61
2024/02/03 09:47:16;;;;;;;12.95;7.20;;;;;;;;;;4989011;28;20030;-61
2024/02/03 09:49:43;;;;;;;14.88;7.05;;;;;;;;;;4990480;28;20138;-60
2024/02/03 09:52:14;;;;;;;11.85;7.22;;;;;;;;;;4988438;28;20612;-61
2024/02/03 09:54:41;;;;;;;11.10;7.07;;;;;;;;;;4987335;28;20488;-61
2024/02/03 09:57:06;;;;;;;11.85;6.03;;;;;;;;;;4984450;28;20035;-61
2024/02/03 09:59:34;;;;;;;12.68;6.15;;;;;;;;;;4986244;28;20026;-61
2024/02/03 10:02:00;;;;;;;9.05;6.45;;;;;;;;;;4983125;28;20027;-60
2024/02/03 10:04:36;;;;;;;14.77;7.22;;;;;;;;;;4989286;28;20639;-60
2024/02/03 10:07:02;;;;;;;8.57;6.13;;;;;;;;;;4985551;28;20141;-59
2024/02/03 10:09:28;;;;;;;11.52;7.18;;;;;;;;;;4987891;28;20158;-61
2024/02/03 10:11:54;;;;;;;11.82;6.60;;;;;;;;;;4985035;28;20046;-61
2024/02/03 10:14:20;;;;;;;9.18;6.78;;;;;;;;;;4985340;28;20030;-61
2024/02/03 10:16:49;;;;;;;11.25;6.22;;;;;;;;;;4982881;28;20628;-61
2024/02/03 10:19:15;;;;;;;10.27;6.38;;;;;;;;;;4985528;28;20473;-62
2024/02/03 10:21:41;;;;;;;8.65;6.35;;;;;;;;;;4991830;28;20022;-60
2024/02/03 10:24:07;;;;;;;11.00;6.95;;;;;;;;;;4993619;28;20070;-60
2024/02/03 10:26:33;;;;;;;10.40;7.05;;;;;;;;;;4988232;28;20022;-60
2024/02/03 10:28:59;;;;;;;12.60;7.07;;;;;;;;;;4985792;28;20034;-61
2024/02/03 10:31:25;;;;;;;15.80;7.50;;;;;;;;;;4987514;28;20485;-61
2024/02/03 10:33:51;;;;;;;10.30;6.80;;;;;;;;;;4990541;28;20023;-61
2024/02/03 10:36:17;;;;;;;12.73;7.47;;;;;;;;;;4992300;28;20026;-61
2024/02/03 10:38:43;;;;;;;12.75;7.10;;;;;;;;;;4992249;28;20072;-60
2024/02/03 10:41:12;;;;;;;12.88;7.70;;;;;;;;;;4990792;28;20033;-61
2024/02/03 10:43:38;;;;;;;12.05;7.55;;;;;;;;;;4992151;28;20030;-60
2024/02/03 10:46:08;;;;;;;11.63;7.25;;;;;;;;;;4991626;28;20073;-61
2024/02/03 10:48:36;;;;;;;10.95;6.88;;;;;;;;;;4989421;28;20034;-60
2024/02/03 10:51:08;;;;;;;14.43;8.07;;;;;;;;;;4992108;28;20116;-61
2024/02/03 10:53:47;;;;;;;11.13;6.85;;;;;;;;;;4990951;28;20049;-61
2024/02/03 10:56:13;;;;;;;13.30;8.18;;;;;;;;;;4991510;28;20117;-59
2024/02/03 10:58:39;;;;;;;11.65;7.32;;;;;;;;;;4989680;28;20027;-61
2024/02/03 11:01:20;;;;;;;11.13;6.35;;;;;;;;;;4990337;28;20036;-60
2024/02/03 11:03:50;;;;;;;10.07;6.68;;;;;;;;;;4991876;28;20133;-60
2024/02/03 11:06:32;;;;;;;14.80;7.32;;;;;;;;;;4988571;28;20061;-61
2024/02/03 11:09:13;;;;;;;13.43;7.28;;;;;;;;;;4987997;28;20030;-61
2024/02/03 11:11:41;;;;;;;11.68;6.97;;;;;;;;;;4989039;28;21149;-61
2024/02/03 11:14:11;;;;;;;18.83;7.57;;;;;;;;;;4991654;28;20042;-61
2024/02/03 11:16:37;;;;;;;15.75;7.80;;;;;;;;;;4985296;28;20404;-61
2024/02/03 11:19:03;;;;;;;15.73;8.27;;;;;;;;;;4985836;28;20133;-61
2024/02/03 11:21:29;;;;;;;15.40;7.22;;;;;;;;;;4989422;28;20065;-58
2024/02/03 11:23:55;;;;;;;12.07;7.35;;;;;;;;;;4985970;28;20038;-61
2024/02/03 11:26:21;;;;;;;14.48;7.15;;;;;;;;;;4991972;28;20030;-60
2024/02/03 11:28:47;;;;;;;12.57;7.00;;;;;;;;;;4990225;28;20124;-61
2024/02/03 11:31:13;;;;;;;15.82;7.78;;;;;;;;;;4982677;28;20042;-61
2024/02/03 11:33:46;;;;;;;9.20;6.50;;;;;;;;;;4986209;28;20034;-60
2024/02/03 11:36:12;;;;;;;10.05;6.60;;;;;;;;;;4988307;28;20493;-60
2024/02/03 11:38:45;;;;;;;15.80;7.05;;;;;;;;;;4982973;28;20148;-60
2024/02/03 11:41:11;;;;;;;9.02;6.05;;;;;;;;;;4988619;28;20061;-60
2024/02/03 11:43:37;;;;;;;12.52;6.95;;;;;;;;;;4987539;28;20039;-60
2024/02/03 11:46:05;;;;;;;10.98;6.75;;;;;;;;;;4986391;28;20026;-60
2024/02/03 11:48:31;;;;;;;8.77;5.72;;;;;;;;;;4989511;28;20037;-60
2024/02/03 11:50:57;;;;;;;8.90;5.30;;;;;;;;;;4991975;28;20027;-57
2024/02/03 11:53:27;;;;;;;8.65;5.78;;;;;;;;;;4991984;28;20551;-60
2024/02/03 11:55:54;;;;;;;12.43;5.68;;;;;;;;;;4983593;28;20035;-59
2024/02/03 11:58:20;;;;;;;6.68;4.88;;;;;;;;;;4987383;28;20026;-59
2024/02/03 12:00:47;;;;;;;6.65;5.35;;;;;;;;;;4987157;28;20309;-59
2024/02/03 12:03:13;;;;;;;7.55;5.22;;;;;;;;;;4986992;28;20026;-59
2024/02/03 12:05:39;;;;;;;10.18;5.82;;;;;;;;;;4990929;28;20026;-60
2024/02/03 12:08:06;;;;;;;12.18;5.70;;;;;;;;;;4991172;28;20062;-61
2024/02/03 12:10:32;;;;;;;10.57;5.35;;;;;;;;;;4989853;28;20057;-58
2024/02/03 12:13:02;;;;;;;9.07;5.32;;;;;;;;;;4985314;28;20041;-61
2024/02/03 12:15:28;;;;;;;9.20;5.75;;;;;;;;;;4987601;28;20030;-59
2024/02/03 12:17:54;;;;;;;9.00;5.55;;;;;;;;;;4988745;28;20029;-58
2024/02/03 12:20:21;;;;;;;8.15;5.80;;;;;;;;;;4989867;28;20034;-57
2024/02/03 12:22:47;;;;;;;11.05;6.25;;;;;;;;;;4986302;28;20022;-60
2024/02/03 12:25:13;;;;;;;8.75;5.10;;;;;;;;;;4984942;28;20030;-61
2024/02/03 12:27:39;;;;;;;6.72;4.30;;;;;;;;;;4988721;28;20080;-60
2024/02/03 12:30:14;;;;;;;7.05;4.32;;;;;;;;;;4989291;28;20397;-60
2024/02/03 12:32:40;;;;;;;9.07;4.00;;;;;;;;;;4986884;28;20108;-60
2024/02/03 12:35:06;;;;;;;7.22;4.47;;;;;;;;;;4989799;28;20567;-60
2024/02/03 12:37:32;;;;;;;6.38;4.63;;;;;;;;;;4989829;28;20157;-61
2024/02/03 12:39:58;;;;;;;5.25;3.92;;;;;;;;;;4985402;28;20112;-59
2024/02/03 12:42:25;;;;;;;9.50;4.20;;;;;;;;;;4984832;28;20037;-61
2024/02/03 12:44:51;;;;;;;10.25;4.60;;;;;;;;;;4990854;28;20109;-60
2024/02/03 12:47:17;;;;;;;11.88;4.32;;;;;;;;;;4991607;28;20078;-59
2024/02/03 12:49:43;;;;;;;7.43;4.43;;;;;;;;;;4989021;28;20089;-58
2024/02/03 12:52:09;;;;;;;8.68;4.40;;;;;;;;;;4989055;28;20048;-60
2024/02/03 12:54:35;;;;;;;6.20;4.50;;;;;;;;;;4990151;28;20032;-60
2024/02/03 12:57:01;;;;;;;7.30;4.70;;;;;;;;;;4988710;28;20019;-60
2024/02/03 12:59:27;;;;;;;6.20;5.15;;;;;;;;;;4989106;28;20058;-61
2024/02/03 13:01:53;;;;;;;8.27;5.60;;;;;;;;;;4986614;28;20026;-60
2024/02/03 13:04:19;;;;;;;9.27;5.93;;;;;;;;;;4989294;28;20026;-60
2024/02/03 13:06:45;;;;;;;6.25;4.65;;;;;;;;;;4990114;28;20388;-60
2024/02/03 13:09:12;;;;;;;7.65;5.53;;;;;;;;;;4985029;28;20038;-60
2024/02/03 13:11:41;;;;;;;7.90;4.38;;;;;;;;;;4988294;28;20538;-60
2024/02/03 13:14:07;;;;;;;6.72;4.43;;;;;;;;;;4985824;28;20049;-60
2024/02/03 13:16:33;;;;;;;11.40;9.70;;;;;;;;;;4990546;28;20520;-61
2024/02/03 13:18:59;;;;;;;4.63;3.80;;;;;;;;;;4989844;28;20022;-59
2024/02/03 13:21:25;;;;;;;6.25;4.43;;;;;;;;;;4986116;28;20041;-61
2024/02/03 13:23:53;;;;;;;5.78;3.83;;;;;;;;;;4989391;28;20030;-60
2024/02/03 13:26:21;;;;;;;8.32;4.85;;;;;;;;;;4990252;28;20511;-61
2024/02/03 13:28:47;;;;;;;8.15;5.15;;;;;;;;;;4988711;28;20034;-61
2024/02/03 13:31:13;;;;;;;7.47;5.10;;;;;;;;;;4990193;28;20077;-61
2024/02/03 13:33:39;;;;;;;10.63;5.55;;;;;;;;;;4988770;28;20084;-60
2024/02/03 13:36:05;;;;;;;8.93;5.88;;;;;;;;;;4989143;28;20037;-60
2024/02/03 13:38:31;;;;;;;7.40;5.65;;;;;;;;;;4990184;28;20037;-61
2024/02/03 13:40:57;;;;;;;7.97;5.40;;;;;;;;;;4988132;28;20058;-61
2024/02/03 13:43:23;;;;;;;7.07;4.97;;;;;;;;;;4989926;28;20030;-61
2024/02/03 13:45:49;;;;;;;6.93;5.50;;;;;;;;;;4987858;28;20030;-61
2024/02/03 13:48:15;;;;;;;9.02;5.07;;;;;;;;;;4989512;28;20391;-61
2024/02/03 13:50:41;;;;;;;7.93;5.00;;;;;;;;;;4988982;28;20030;-62
2024/02/03 13:53:08;;;;;;;6.05;4.85;;;;;;;;;;4989699;28;20567;-62
2024/02/03 13:55:35;;;;;;;7.38;4.00;;;;;;;;;;4990984;28;20098;-61
2024/02/03 13:58:01;;;;;;;6.22;3.58;;;;;;;;;;4987183;28;20022;-61
2024/02/03 14:00:27;;;;;;;8.13;4.93;;;;;;;;;;4994146;28;20101;-61
2024/02/03 14:02:53;;;;;;;5.95;4.45;;;;;;;;;;4994006;28;20550;-62
2024/02/03 14:05:19;;;;;;;6.90;4.68;;;;;;;;;;4993378;28;20141;-60
2024/02/03 14:07:45;;;;;;;7.32;4.82;;;;;;;;;;4993165;28;20092;-61
2024/02/03 14:10:12;;;;;;;7.65;5.40;;;;;;;;;;4994115;28;20069;-61
2024/02/03 14:12:38;;;;;;;11.52;5.90;;;;;;;;;;4990696;28;20034;-60
2024/02/03 14:15:05;;;;;;;5.88;5.05;;;;;;;;;;4993128;28;20093;-61
2024/02/03 14:17:31;;;;;;;8.30;5.75;;;;;;;;;;4994004;28;20554;-61
2024/02/03 14:19:57;;;;;;;8.50;5.75;;;;;;;;;;4986354;28;20114;-61
2024/02/03 14:22:23;;;;;;;10.57;6.70;;;;;;;;;;4993255;28;20045;-61
2024/02/03 14:24:49;;;;;;;9.13;6.35;;;;;;;;;;4991598;28;20381;-60
2024/02/03 14:27:15;;;;;;;12.43;7.15;;;;;;;;;;4993517;28;20633;-61